createdAt,value
2023-02-15T00:01:20.786Z,9.01
2023-02-15T00:03:50.825Z,9.04
2023-02-15T00:06:21.159Z,9.05
2023-02-15T00:08:50.128Z,9.03
2023-02-15T00:11:40.625Z,9.08
2023-02-15T00:14:12.218Z,9.09
2023-02-15T00:16:42.093Z,9.06
2023-02-15T00:19:12.483Z,9.06
2023-02-15T00:21:42.631Z,9.11
2023-02-15T00:24:14.035Z,9.11
2023-02-15T00:26:43.600Z,9.08
2023-02-15T00:29:14.190Z,9.11
2023-02-15T00:31:43.541Z,9.14
2023-02-15T00:34:14.408Z,9.11
2023-02-15T00:36:45.305Z,9.09
2023-02-15T00:39:17.537Z,9.09
2023-02-15T00:41:48.170Z,9.11
2023-02-15T00:44:17.320Z,9.09
2023-02-15T00:46:45.985Z,9.08
2023-02-15T00:49:16.029Z,9.08
2023-02-15T00:51:45.992Z,9.09
2023-02-15T00:54:14.942Z,9.09
2023-02-15T00:56:43.681Z,8.93
2023-02-15T00:59:12.717Z,8.99
2023-02-15T01:01:41.226Z,8.99
2023-02-15T01:04:10.206Z,9.01
2023-02-15T01:06:38.785Z,9.05
2023-02-15T01:09:09.054Z,9.05
2023-02-15T01:11:39.188Z,9.00
2023-02-15T01:14:08.032Z,9.00
2023-02-15T01:16:40.635Z,8.99
2023-02-15T01:19:09.520Z,9.00
2023-02-15T01:21:38.113Z,9.00
2023-02-15T01:24:14.031Z,9.08
2023-02-15T01:26:42.669Z,8.99
2023-02-15T01:29:11.664Z,8.98
2023-02-15T01:31:40.771Z,9.00
2023-02-15T01:34:10.081Z,9.01
2023-02-15T01:36:40.818Z,9.01
2023-02-15T01:39:11.584Z,9.03
2023-02-15T01:41:40.281Z,9.06
2023-02-15T01:44:42.333Z,9.23
2023-02-15T01:47:12.831Z,9.05
2023-02-15T01:49:44.615Z,9.04
2023-02-15T01:52:18.471Z,9.12
2023-02-15T01:54:49.924Z,9.10
2023-02-15T01:57:24.168Z,9.11
2023-02-15T02:00:01.834Z,9.15
2023-02-15T02:02:42.772Z,9.15
2023-02-15T02:05:11.738Z,9.10
2023-02-15T02:07:43.395Z,9.15
2023-02-15T02:10:16.208Z,9.14
2023-02-15T02:12:47.433Z,9.12
2023-02-15T02:15:17.049Z,9.10
2023-02-15T02:18:00.957Z,9.22
2023-02-15T02:20:46.742Z,9.23
2023-02-15T02:23:31.730Z,9.27
2023-02-15T02:26:42.568Z,9.31
2023-02-15T02:29:49.598Z,9.32
2023-02-15T02:32:48.070Z,9.25
2023-02-15T02:35:27.721Z,9.19
2023-02-15T02:38:05.873Z,9.23
2023-02-15T02:40:48.822Z,9.23
2023-02-15T02:43:23.691Z,9.19
2023-02-15T02:45:59.220Z,9.18
2023-02-15T02:48:31.767Z,9.18
2023-02-15T02:51:02.472Z,9.17
2023-02-15T02:53:33.571Z,9.15
2023-02-15T02:56:08.694Z,9.14
2023-02-15T02:58:43.710Z,9.14
2023-02-15T03:01:19.505Z,9.13
2023-02-15T03:03:53.530Z,8.84
2023-02-15T03:06:29.507Z,8.97
2023-02-15T03:09:08.933Z,9.02
2023-02-15T03:11:38.001Z,8.83
2023-02-15T03:14:07.090Z,8.85
2023-02-15T03:16:37.670Z,8.87
2023-02-15T03:19:11.809Z,8.95
2023-02-15T03:21:50.450Z,8.98
2023-02-15T03:24:25.115Z,8.91
2023-02-15T03:26:55.652Z,8.92
2023-02-15T03:29:29.341Z,8.91
2023-02-15T03:32:02.895Z,8.90
2023-02-15T03:34:32.130Z,8.85
2023-02-15T03:37:10.022Z,8.96
2023-02-15T03:39:44.407Z,8.87
2023-02-15T03:42:19.170Z,8.87
2023-02-15T03:44:54.408Z,8.86
2023-02-15T03:47:29.525Z,8.81
2023-02-15T03:50:03.867Z,8.79
2023-02-15T03:52:35.316Z,8.80
2023-02-15T03:55:04.713Z,8.73
2023-02-15T03:57:51.128Z,8.68
2023-02-15T04:00:41.331Z,8.67
2023-02-15T04:03:21.137Z,8.68
2023-02-15T04:05:50.194Z,8.61
2023-02-15T04:08:20.418Z,8.60
2023-02-15T04:10:56.078Z,8.61
2023-02-15T04:13:31.844Z,8.57
2023-02-15T04:16:07.323Z,8.56
2023-02-15T04:18:59.124Z,8.57
2023-02-15T04:21:47.578Z,8.56
2023-02-15T04:24:35.581Z,8.33
2023-02-15T04:27:05.339Z,8.36
2023-02-15T04:29:34.626Z,8.36
2023-02-15T04:32:04.107Z,8.40
2023-02-15T04:34:32.777Z,8.39
2023-02-15T04:37:01.661Z,8.40
2023-02-15T04:39:32.275Z,8.33
2023-02-15T04:42:01.231Z,8.29
2023-02-15T04:44:29.812Z,8.27
2023-02-15T04:46:58.709Z,8.23
2023-02-15T04:49:27.306Z,8.20
2023-02-15T04:51:56.128Z,8.12
2023-02-15T04:54:24.970Z,8.06
2023-02-15T04:56:55.293Z,7.99
2023-02-15T04:59:23.954Z,7.97
2023-02-15T05:01:53.206Z,7.87
2023-02-15T05:04:21.781Z,7.81
2023-02-15T05:06:51.085Z,7.76
2023-02-15T05:09:19.685Z,7.73
2023-02-15T05:11:48.839Z,7.69
2023-02-15T05:14:18.886Z,7.67
2023-02-15T05:16:47.848Z,7.63
2023-02-15T05:19:16.630Z,7.60
2023-02-15T05:21:45.887Z,7.56
2023-02-15T05:24:32.947Z,7.55
2023-02-15T05:27:19.731Z,7.50
2023-02-15T05:29:49.843Z,7.48
2023-02-15T05:32:18.920Z,7.41
2023-02-15T05:34:47.637Z,7.38
2023-02-15T05:37:16.608Z,7.33
2023-02-15T05:39:45.312Z,7.31
2023-02-15T05:42:14.505Z,7.29
2023-02-15T05:44:43.225Z,7.26
2023-02-15T05:47:13.812Z,7.25
2023-02-15T05:49:42.436Z,7.22
2023-02-15T05:52:13.237Z,7.19
2023-02-15T05:54:41.744Z,7.17
2023-02-15T05:57:10.919Z,7.15
2023-02-15T05:59:41.318Z,7.14
2023-02-15T06:02:10.729Z,7.14
2023-02-15T06:04:41.438Z,7.16
2023-02-15T06:07:10.551Z,7.14
2023-02-15T06:09:39.700Z,7.09
2023-02-15T06:12:09.191Z,7.11
2023-02-15T06:14:38.101Z,7.13
2023-02-15T06:17:07.640Z,7.14
2023-02-15T06:19:36.765Z,7.12
2023-02-15T06:22:08.161Z,7.17
2023-02-15T06:24:37.529Z,7.19
2023-02-15T06:27:08.019Z,7.27
2023-02-15T06:29:36.933Z,7.30
2023-02-15T06:32:07.554Z,7.39
2023-02-15T06:34:36.427Z,7.31
2023-02-15T06:37:09.150Z,7.42
2023-02-15T06:39:38.809Z,7.47
2023-02-15T06:42:07.843Z,7.55
2023-02-15T06:44:36.565Z,7.58
2023-02-15T06:47:05.620Z,7.65
2023-02-15T06:49:34.360Z,7.75
2023-02-15T06:52:03.290Z,7.82
2023-02-15T06:54:33.440Z,7.92
2023-02-15T06:57:02.237Z,8.00
2023-02-15T06:59:30.818Z,8.05
2023-02-15T07:01:59.865Z,8.13
2023-02-15T07:04:29.825Z,8.21
2023-02-15T07:06:58.780Z,8.28
2023-02-15T07:09:28.156Z,8.30
2023-02-15T07:12:15.916Z,8.41
2023-02-15T07:14:44.559Z,8.49
2023-02-15T07:17:32.769Z,8.59
2023-02-15T07:20:02.666Z,8.50
2023-02-15T07:22:31.594Z,8.57
2023-02-15T07:25:00.158Z,8.70
2023-02-15T07:27:30.525Z,8.87
2023-02-15T07:29:59.183Z,8.98
2023-02-15T07:32:30.196Z,8.96
2023-02-15T07:34:59.347Z,8.99
2023-02-15T07:37:28.942Z,9.03
2023-02-15T07:39:58.296Z,9.10
2023-02-15T07:42:27.311Z,8.99
2023-02-15T07:44:57.360Z,8.73
2023-02-15T07:47:26.429Z,8.97
2023-02-15T07:49:55.050Z,9.01
2023-02-15T07:52:24.052Z,9.26
2023-02-15T07:54:52.703Z,9.23
2023-02-15T07:57:22.055Z,9.44
2023-02-15T07:59:50.925Z,9.61
2023-02-15T08:02:21.363Z,9.75
2023-02-15T08:04:50.150Z,9.64
2023-02-15T08:07:19.010Z,9.83
2023-02-15T08:09:47.664Z,9.16
2023-02-15T08:12:16.548Z,8.81
2023-02-15T08:14:45.254Z,9.27
2023-02-15T08:17:14.296Z,9.52
2023-02-15T08:19:44.269Z,9.02
2023-02-15T08:22:15.775Z,8.82
2023-02-15T08:24:44.358Z,9.30
2023-02-15T08:27:13.581Z,9.49
2023-02-15T08:29:43.316Z,9.68
2023-02-15T08:32:14.787Z,9.64
2023-02-15T08:34:44.884Z,10.02
2023-02-15T08:37:13.996Z,8.92
2023-02-15T08:39:43.944Z,9.37
2023-02-15T08:42:13.189Z,8.77
2023-02-15T08:44:41.827Z,9.25
2023-02-15T08:47:14.324Z,9.71
2023-02-15T08:49:44.377Z,10.02
2023-02-15T08:52:13.349Z,8.08
2023-02-15T08:54:43.569Z,7.80
2023-02-15T08:57:12.828Z,8.00
2023-02-15T08:59:41.458Z,7.82
2023-02-15T09:02:13.006Z,7.70
2023-02-15T09:04:41.860Z,8.17
2023-02-15T09:07:12.745Z,7.12
2023-02-15T09:09:41.510Z,7.03
2023-02-15T09:12:10.552Z,6.83
2023-02-15T09:14:39.245Z,7.32
2023-02-15T09:17:08.267Z,7.48
2023-02-15T09:19:36.886Z,6.63
2023-02-15T09:22:06.620Z,6.53
2023-02-15T09:24:37.391Z,7.08
2023-02-15T09:27:06.387Z,7.14
2023-02-15T09:29:35.187Z,6.87
2023-02-15T09:32:04.471Z,6.83
2023-02-15T09:34:35.049Z,6.72
2023-02-15T09:37:04.726Z,7.35
2023-02-15T09:39:33.352Z,7.33
2023-02-15T09:42:42.569Z,7.65
2023-02-15T09:45:28.829Z,7.05
2023-02-15T09:48:28.594Z,7.13
2023-02-15T09:51:08.773Z,7.05
2023-02-15T09:53:58.060Z,7.66
2023-02-15T09:56:37.961Z,7.46
2023-02-15T09:59:18.381Z,7.40
2023-02-15T10:01:56.998Z,7.36
2023-02-15T10:04:46.843Z,7.17
2023-02-15T10:07:29.730Z,7.62
2023-02-15T10:10:08.585Z,7.55
2023-02-15T10:13:01.754Z,7.38
2023-02-15T10:15:45.401Z,7.29
2023-02-15T10:18:44.729Z,8.40
2023-02-15T10:21:26.201Z,7.50
2023-02-15T10:24:12.604Z,7.80
2023-02-15T10:26:46.097Z,8.71
2023-02-15T10:29:28.808Z,7.70
2023-02-15T10:32:12.647Z,7.28
2023-02-15T10:34:46.011Z,7.40
2023-02-15T10:37:38.746Z,7.32
2023-02-15T10:40:17.308Z,7.40
2023-02-15T10:43:00.258Z,7.93
2023-02-15T10:45:41.265Z,8.33
2023-02-15T10:48:32.708Z,9.12
2023-02-15T10:51:05.301Z,8.75
2023-02-15T10:53:59.452Z,8.41
2023-02-15T10:56:38.635Z,8.65
2023-02-15T10:59:25.807Z,8.67
2023-02-15T11:02:02.668Z,8.54
2023-02-15T11:04:55.308Z,9.26
2023-02-15T11:07:28.984Z,9.79
2023-02-15T11:10:07.899Z,9.48
2023-02-15T11:12:36.901Z,9.05
2023-02-15T11:15:17.838Z,9.55
2023-02-15T11:17:53.613Z,10.14
2023-02-15T11:20:31.557Z,10.59
2023-02-15T11:23:03.676Z,9.77
2023-02-15T11:25:35.356Z,10.45
2023-02-15T11:28:13.193Z,10.59
2023-02-15T11:30:46.310Z,10.25
2023-02-15T11:33:20.050Z,10.52
2023-02-15T11:35:56.554Z,10.97
2023-02-15T11:38:29.918Z,11.47
2023-02-15T11:41:02.544Z,10.64
2023-02-15T11:43:38.027Z,11.51
2023-02-15T11:46:08.081Z,11.92
2023-02-15T11:48:37.156Z,11.93
2023-02-15T11:51:07.986Z,11.27
2023-02-15T11:53:40.192Z,11.14
2023-02-15T11:56:16.195Z,11.96
2023-02-15T11:58:47.859Z,11.68
2023-02-15T12:01:20.386Z,11.91
2023-02-15T12:03:51.112Z,12.35
2023-02-15T12:06:26.817Z,12.18
2023-02-15T12:09:03.070Z,11.86
2023-02-15T12:11:37.187Z,11.89
2023-02-15T12:14:08.431Z,12.33
2023-02-15T12:16:44.666Z,12.22
2023-02-15T12:19:31.220Z,11.49
2023-02-15T12:22:04.708Z,11.10
2023-02-15T12:24:37.038Z,10.99
2023-02-15T12:27:08.670Z,11.38
2023-02-15T12:29:44.131Z,11.31
2023-02-15T12:32:19.249Z,11.63
2023-02-15T12:34:48.818Z,12.01
2023-02-15T12:37:23.616Z,11.86
2023-02-15T12:39:58.362Z,11.96
2023-02-15T12:42:30.178Z,12.16
2023-02-15T12:45:02.456Z,12.44
2023-02-15T12:47:33.474Z,12.54
2023-02-15T12:50:18.725Z,12.84
2023-02-15T12:52:51.841Z,12.86
2023-02-15T12:55:24.466Z,12.90
2023-02-15T12:58:08.452Z,13.06
2023-02-15T13:00:38.197Z,13.10
2023-02-15T13:03:08.272Z,13.20
2023-02-15T13:05:41.393Z,13.38
2023-02-15T13:08:17.483Z,13.48
2023-02-15T13:10:58.277Z,13.53
2023-02-15T13:13:29.934Z,12.88
2023-02-15T13:16:01.867Z,11.25
2023-02-15T13:18:34.363Z,11.10
2023-02-15T13:24:01.041Z,10.94
2023-02-15T13:26:34.486Z,11.26
2023-02-15T13:29:10.714Z,11.59
2023-02-15T13:31:42.033Z,10.50
2023-02-15T13:34:18.107Z,10.67
2023-02-15T13:36:56.535Z,10.86
2023-02-15T13:39:34.142Z,11.32
2023-02-15T13:42:12.005Z,11.71
2023-02-15T13:45:02.196Z,12.07
2023-02-15T13:47:38.951Z,12.25
2023-02-15T13:50:24.635Z,12.37
2023-02-15T13:53:04.958Z,12.22
2023-02-15T13:55:42.397Z,12.49
2023-02-15T13:58:55.748Z,12.68
2023-02-15T14:01:33.639Z,12.69
2023-02-15T14:04:43.654Z,12.92
2023-02-15T14:07:35.714Z,13.02
2023-02-15T14:10:22.955Z,13.08
2023-02-15T14:13:08.083Z,13.15
2023-02-15T14:15:46.389Z,13.04
2023-02-15T14:18:26.982Z,13.04
2023-02-15T14:21:09.357Z,13.05
2023-02-15T14:23:50.120Z,13.02
2023-02-15T14:26:27.752Z,13.05
2023-02-15T14:29:08.998Z,13.06
2023-02-15T14:31:44.125Z,13.01
2023-02-15T14:34:23.353Z,13.12
2023-02-15T14:36:54.335Z,13.04
2023-02-15T14:39:51.739Z,13.15
2023-02-15T14:42:26.832Z,13.10
2023-02-15T14:45:06.770Z,13.18
2023-02-15T14:47:42.013Z,13.14
2023-02-15T14:50:49.893Z,13.09
2023-02-15T14:53:39.912Z,13.04
2023-02-15T14:56:22.261Z,12.96
2023-02-15T14:59:10.486Z,13.00
2023-02-15T15:01:43.508Z,12.94
2023-02-15T15:04:23.340Z,13.00
2023-02-15T15:07:02.920Z,13.08
2023-02-15T15:09:35.781Z,12.91
2023-02-15T15:12:41.091Z,12.81
2023-02-15T15:15:13.413Z,12.52
2023-02-15T15:18:03.803Z,12.56
2023-02-15T15:20:46.536Z,12.57
2023-02-15T15:23:42.680Z,12.43
2023-02-15T15:26:29.095Z,12.38
2023-02-15T15:29:03.444Z,12.28
2023-02-15T15:31:53.430Z,12.40
2023-02-15T15:34:38.213Z,12.36
2023-02-15T15:37:43.318Z,12.36
2023-02-15T15:40:38.199Z,12.32
2023-02-15T15:43:37.755Z,12.39
2023-02-15T15:46:20.134Z,12.30
2023-02-15T15:48:48.959Z,12.20
2023-02-15T15:51:22.491Z,12.26
2023-02-15T15:53:54.407Z,12.21
2023-02-15T15:56:29.215Z,12.18
2023-02-15T15:59:01.658Z,12.14
2023-02-15T16:01:32.648Z,12.09
2023-02-15T16:04:01.900Z,12.04
2023-02-15T16:06:38.132Z,12.07
2023-02-15T16:09:15.151Z,12.10
2023-02-15T16:11:44.955Z,11.98
2023-02-15T16:14:17.534Z,11.97
2023-02-15T16:16:53.178Z,11.95
2023-02-15T16:19:26.396Z,11.91
2023-02-15T16:21:59.825Z,11.82
2023-02-15T16:24:45.812Z,11.91
2023-02-15T16:27:38.586Z,11.83
2023-02-15T16:30:22.025Z,11.84
2023-02-15T16:32:51.618Z,11.66
2023-02-15T16:35:22.106Z,11.62
2023-02-15T16:37:52.627Z,11.61
2023-02-15T16:40:41.620Z,11.72
2023-02-15T16:43:18.447Z,11.64
2023-02-15T16:45:48.298Z,11.52
2023-02-15T16:48:23.079Z,11.51
2023-02-15T16:50:55.566Z,11.45
2023-02-15T16:53:28.545Z,11.42
2023-02-15T16:56:01.114Z,11.38
2023-02-15T16:58:37.207Z,11.35
2023-02-15T17:01:10.258Z,11.35
2023-02-15T17:03:39.734Z,11.27
2023-02-15T17:06:22.391Z,11.40
2023-02-15T17:08:52.940Z,11.24
2023-02-15T17:11:24.248Z,11.22
2023-02-15T17:14:23.630Z,11.34
2023-02-15T17:16:55.041Z,11.18
2023-02-15T17:19:27.234Z,11.14
2023-02-15T17:21:58.532Z,11.07
2023-02-15T17:24:38.285Z,11.13
2023-02-15T17:27:14.192Z,11.08
2023-02-15T17:29:48.171Z,11.02
2023-02-15T17:32:21.225Z,10.99
2023-02-15T17:35:00.248Z,10.93
2023-02-15T17:37:32.127Z,10.90
2023-02-15T17:40:07.763Z,10.87
2023-02-15T17:42:36.636Z,10.81
2023-02-15T17:45:06.275Z,10.81
2023-02-15T17:47:35.002Z,10.79
2023-02-15T17:50:06.998Z,10.76
2023-02-15T17:52:38.196Z,10.69
2023-02-15T17:55:33.114Z,10.72
2023-02-15T17:58:02.891Z,10.60
2023-02-15T18:00:50.488Z,10.56
2023-02-15T18:03:37.231Z,10.50
2023-02-15T18:06:24.591Z,10.48
2023-02-15T18:09:12.573Z,10.44
2023-02-15T18:11:48.670Z,10.42
2023-02-15T18:14:17.408Z,10.33
2023-02-15T18:16:47.171Z,10.29
2023-02-15T18:19:18.735Z,10.27
2023-02-15T18:21:48.443Z,10.21
2023-02-15T18:24:20.206Z,10.20
2023-02-15T18:26:50.690Z,10.16
2023-02-15T18:29:19.302Z,10.19
2023-02-15T18:31:53.224Z,10.14
2023-02-15T18:34:29.378Z,10.15
2023-02-15T18:37:00.902Z,10.04
2023-02-15T18:39:38.030Z,10.05
2023-02-15T18:42:20.738Z,10.12
2023-02-15T18:44:49.597Z,9.97
2023-02-15T18:47:18.747Z,9.95
2023-02-15T18:49:47.413Z,9.96
2023-02-15T18:52:17.943Z,9.94
2023-02-15T18:54:47.143Z,9.89
2023-02-15T18:57:17.868Z,9.98
2023-02-15T18:59:46.706Z,9.90
2023-02-15T19:02:17.494Z,9.88
2023-02-15T19:04:47.061Z,9.90
2023-02-15T19:07:19.751Z,9.91
2023-02-15T19:09:52.831Z,9.90
2023-02-15T19:12:23.610Z,9.84
2023-02-15T19:14:53.038Z,9.86
2023-02-15T19:17:23.101Z,9.84
2023-02-15T19:19:52.848Z,9.86
2023-02-15T19:22:27.376Z,9.87
2023-02-15T19:24:58.335Z,9.77
2023-02-15T19:27:32.179Z,9.77
2023-02-15T19:30:03.119Z,9.76
2023-02-15T19:32:32.668Z,9.76
2023-02-15T19:35:01.245Z,9.70
2023-02-15T19:37:36.081Z,9.62
2023-02-15T19:40:05.960Z,9.59
2023-02-15T19:42:36.388Z,9.45
2023-02-15T19:45:15.625Z,9.47
2023-02-15T19:47:44.624Z,9.47
2023-02-15T19:50:17.221Z,9.55
2023-02-15T19:52:47.173Z,9.48
2023-02-15T19:55:22.491Z,9.48
2023-02-15T19:57:53.463Z,9.54
2023-02-15T20:00:25.871Z,9.49
2023-02-15T20:02:55.717Z,9.38
2023-02-15T20:05:25.171Z,9.38
2023-02-15T20:07:55.014Z,9.31
2023-02-15T20:10:27.747Z,9.35
2023-02-15T20:12:59.154Z,9.48
2023-02-15T20:15:29.491Z,9.38
2023-02-15T20:18:01.762Z,9.46
2023-02-15T20:20:35.787Z,9.36
2023-02-15T20:23:04.842Z,9.39
2023-02-15T20:25:34.509Z,9.43
2023-02-15T20:28:05.157Z,9.34
2023-02-15T20:30:34.015Z,9.39
2023-02-15T20:33:02.990Z,9.38
2023-02-15T20:35:31.768Z,9.41
2023-02-15T20:38:02.765Z,9.48
2023-02-15T20:40:33.798Z,9.45
2023-02-15T20:43:05.096Z,9.46
2023-02-15T20:45:34.394Z,9.46
2023-02-15T20:48:03.934Z,9.45
2023-02-15T20:50:35.424Z,9.49
2023-02-15T20:53:04.338Z,9.40
2023-02-15T20:55:33.783Z,9.41
2023-02-15T20:58:04.479Z,9.44
2023-02-15T21:00:33.517Z,9.39
2023-02-15T21:03:03.055Z,9.39
2023-02-15T21:05:33.984Z,9.31
2023-02-15T21:08:02.897Z,9.32
2023-02-15T21:10:35.477Z,9.21
2023-02-15T21:13:06.127Z,9.28
2023-02-15T21:15:37.284Z,9.18
2023-02-15T21:18:08.416Z,9.16
2023-02-15T21:20:37.746Z,9.18
2023-02-15T21:23:07.240Z,9.11
2023-02-15T21:25:38.204Z,9.08
2023-02-15T21:28:16.675Z,8.99
2023-02-15T21:30:45.497Z,8.94
2023-02-15T21:33:16.173Z,8.83
2023-02-15T21:35:47.590Z,8.88
2023-02-15T21:38:20.798Z,8.82
2023-02-15T21:40:50.928Z,8.68
2023-02-15T21:43:42.335Z,8.80
2023-02-15T21:46:31.439Z,8.73
2023-02-15T21:49:01.811Z,8.69
2023-02-15T21:51:48.560Z,8.67
2023-02-15T21:54:20.172Z,8.65
2023-02-15T21:56:50.990Z,8.75
2023-02-15T21:59:21.623Z,8.75
2023-02-15T22:01:52.777Z,8.72
2023-02-15T22:04:26.348Z,8.77
2023-02-15T22:06:55.748Z,8.78
2023-02-15T22:09:26.953Z,8.82
2023-02-15T22:11:56.639Z,8.87
2023-02-15T22:14:39.336Z,9.05
2023-02-15T22:17:16.602Z,8.97
2023-02-15T22:19:46.659Z,8.86
2023-02-15T22:22:16.019Z,8.90
2023-02-15T22:24:46.346Z,8.93
2023-02-15T22:27:20.158Z,8.95
2023-02-15T22:29:51.351Z,8.90
2023-02-15T22:32:21.324Z,8.89
2023-02-15T22:34:51.178Z,8.90
2023-02-15T22:37:19.812Z,8.95
2023-02-15T22:39:49.028Z,8.84
2023-02-15T22:42:25.231Z,8.86
2023-02-15T22:44:57.353Z,8.91
2023-02-15T22:47:28.409Z,8.88
2023-02-15T22:49:57.393Z,8.84
2023-02-15T22:52:26.262Z,8.91
2023-02-15T22:54:55.366Z,8.88
2023-02-15T22:57:31.920Z,8.95
2023-02-15T23:00:02.797Z,8.83
2023-02-15T23:02:31.620Z,8.89
2023-02-15T23:05:00.832Z,8.95
2023-02-15T23:07:29.641Z,8.88
2023-02-15T23:09:59.076Z,8.86
2023-02-15T23:12:50.758Z,8.77
2023-02-15T23:15:21.280Z,8.71
2023-02-15T23:17:49.894Z,8.57
2023-02-15T23:20:19.405Z,8.63
2023-02-15T23:22:48.239Z,8.73
2023-02-15T23:25:19.166Z,8.69
2023-02-15T23:28:00.666Z,8.70
2023-02-15T23:30:31.583Z,8.68
2023-02-15T23:33:00.202Z,8.73
2023-02-15T23:35:29.669Z,8.57
2023-02-15T23:37:58.304Z,8.58
2023-02-15T23:40:44.898Z,8.58
2023-02-15T23:43:20.389Z,8.67
2023-02-15T23:45:51.233Z,8.63
2023-02-15T23:48:32.134Z,8.68
2023-02-15T23:51:21.944Z,8.57
2023-02-15T23:53:50.692Z,8.47
2023-02-15T23:56:19.985Z,8.42
2023-02-15T23:58:49.947Z,8.48
